< < Back
Terminal Aerodrome Forecast


Current Version              Previous Versions:   1  2  3  4  5  6  7  8  9  

Terminal Aerodrome Forecast

689
FTUS42 KFFC 301139
TAFPDK
TAF
KPDK 301139Z 3012/3112 00000KT P6SM SKC
     FM301500 32005KT P6SM FEW040
     FM301800 32008KT P6SM SCT060
     FM310100 34003KT P6SM FEW250
     FM310500 00000KT P6SM FEW250=



Latest METAR

234
SAUS70 KWBC 310200 RRF
MTRPDK
METAR KPDK 310153Z 01003KT 10SM CLR 25/16 A2995 RMK AO2 SLP124
T02500156


USA.gov is the U.S. government's official web portal to all federal, state and local government web resources and services.